Time;durP1;ratioP1;P1;durP2;ratioP2;P2;SDS_P1;SDS_P2;PMS_P1;PMS_P2;Temp;Humidity;BMP_temperature;BMP_pressure;BME280_temperature;BME280_humidity;BME280_pressure;Samples;Min_cycle;Max_cycle;Signal;HPM_P1;HPM_P2
2023/06/25 00:02:07;;;;;;;0.10;0.00;;;18.80;99.90;;;;;;4993770;28;20512;-74
2023/06/25 00:04:33;;;;;;;0.25;0.10;;;18.70;99.90;;;;;;4987716;28;20037;-74
2023/06/25 00:07:00;;;;;;;0.03;0.03;;;18.70;99.90;;;;;;4999410;28;20034;-74
2023/06/25 00:09:26;;;;;;;0.00;0.00;;;18.60;99.90;;;;;;4994318;28;20053;-74
2023/06/25 00:11:52;;;;;;;0.10;0.08;;;18.50;99.90;;;;;;4978723;28;20038;-74
2023/06/25 00:14:18;;;;;;;0.08;0.08;;;18.50;99.90;;;;;;4992604;28;20049;-74
2023/06/25 00:16:43;;;;;;;0.40;0.20;;;18.50;99.90;;;;;;4980524;28;20068;-75
2023/06/25 00:19:09;;;;;;;0.00;0.00;;;18.40;99.90;;;;;;5001085;28;20383;-74
2023/06/25 00:21:37;;;;;;;0.10;0.10;;;18.30;99.90;;;;;;4984560;28;20044;-74
2023/06/25 00:24:03;;;;;;;0.05;0.03;;;18.30;99.90;;;;;;4993019;28;20038;-74
2023/06/25 00:26:30;;;;;;;0.55;0.30;;;18.30;99.90;;;;;;4996594;28;20041;-75
2023/06/25 00:28:55;;;;;;;0.10;0.08;;;18.20;99.90;;;;;;4997514;28;20034;-75
2023/06/25 00:31:21;;;;;;;0.00;0.00;;;18.20;99.90;;;;;;4996369;28;20219;-74
2023/06/25 00:33:49;;;;;;;0.13;0.10;;;18.20;99.90;;;;;;4994238;28;20503;-74
2023/06/25 00:36:15;;;;;;;0.00;0.00;;;18.20;99.90;;;;;;4995419;28;20069;-75
2023/06/25 00:38:42;;;;;;;0.15;0.15;;;18.10;99.90;;;;;;5002841;28;20037;-75
2023/06/25 00:41:11;;;;;;;1.65;0.28;;;18.10;99.90;;;;;;5000649;28;20123;-75
2023/06/25 00:43:41;;;;;;;0.10;0.10;;;18.10;99.90;;;;;;4977603;28;20065;-74
2023/06/25 00:46:12;;;;;;;0.00;0.00;;;18.20;99.90;;;;;;4987675;28;20087;-75
2023/06/25 00:48:45;;;;;;;0.50;0.32;;;18.10;99.90;;;;;;4980631;28;20041;-74
2023/06/25 00:51:14;;;;;;;0.40;0.20;;;18.10;99.90;;;;;;4978840;28;20121;-75
2023/06/25 00:53:40;;;;;;;0.57;0.20;;;18.10;99.90;;;;;;4996459;28;20540;-74
2023/06/25 00:56:06;;;;;;;0.10;0.10;;;18.10;99.90;;;;;;4996956;28;20154;-74
2023/06/25 00:58:37;;;;;;;0.43;0.10;;;18.10;99.90;;;;;;4997516;28;20079;-74
2023/06/25 01:01:07;;;;;;;0.08;0.08;;;18.00;99.90;;;;;;4989125;28;20065;-75
2023/06/25 01:03:41;;;;;;;0.57;0.10;;;18.00;99.90;;;;;;4985074;28;20034;-74
2023/06/25 01:06:14;;;;;;;0.28;0.00;;;18.00;99.90;;;;;;4998212;28;20088;-74
2023/06/25 01:08:47;;;;;;;0.25;0.10;;;18.00;99.90;;;;;;5001457;28;20057;-74
2023/06/25 01:11:12;;;;;;;0.00;0.00;;;18.00;99.90;;;;;;4992001;28;20049;-74
2023/06/25 01:13:38;;;;;;;0.10;0.00;;;18.00;99.90;;;;;;4981914;28;20418;-74
2023/06/25 01:16:04;;;;;;;0.20;0.20;;;18.00;99.90;;;;;;4984592;28;20049;-75
2023/06/25 01:18:30;;;;;;;0.20;0.20;;;18.00;99.90;;;;;;4992088;28;20541;-75
2023/06/25 01:20:56;;;;;;;0.20;0.10;;;18.00;99.90;;;;;;4992610;28;20522;-74
2023/06/25 01:23:22;;;;;;;0.15;0.10;;;17.90;99.90;;;;;;4993876;28;20042;-74
2023/06/25 01:25:49;;;;;;;0.15;0.10;;;17.90;99.90;;;;;;4995577;28;20046;-74
2023/06/25 01:28:20;;;;;;;0.50;0.40;;;17.90;99.90;;;;;;4994043;28;20066;-74
2023/06/25 01:30:47;;;;;;;0.20;0.20;;;17.80;99.90;;;;;;4982155;28;20042;-74
2023/06/25 01:33:15;;;;;;;0.10;0.10;;;17.80;99.90;;;;;;4979138;28;20430;-75
2023/06/25 01:35:41;;;;;;;0.08;0.08;;;17.80;99.90;;;;;;4992739;28;20107;-74
2023/06/25 01:38:07;;;;;;;0.30;0.30;;;17.70;99.90;;;;;;4974736;28;20050;-74
2023/06/25 01:40:32;;;;;;;0.10;0.10;;;17.70;99.90;;;;;;4979150;28;20089;-75
2023/06/25 01:42:58;;;;;;;0.65;0.65;;;17.60;99.90;;;;;;4998292;28;20094;-74
2023/06/25 01:45:23;;;;;;;0.05;0.05;;;17.60;99.90;;;;;;4994343;28;20038;-74
2023/06/25 01:47:50;;;;;;;0.05;0.05;;;17.60;99.90;;;;;;4995786;28;20039;-74
2023/06/25 01:50:15;;;;;;;0.00;0.00;;;17.50;99.90;;;;;;4987561;28;20137;-74
2023/06/25 01:52:41;;;;;;;0.30;0.20;;;17.50;99.90;;;;;;4976385;28;20643;-74
2023/06/25 01:55:07;;;;;;;0.40;0.30;;;17.40;99.90;;;;;;4974937;28;20050;-75
2023/06/25 01:57:33;;;;;;;0.20;0.00;;;17.40;99.90;;;;;;4987279;28;20046;-74
2023/06/25 01:59:59;;;;;;;0.00;0.00;;;17.30;99.90;;;;;;4988417;28;20080;-75
2023/06/25 02:02:24;;;;;;;0.13;0.05;;;17.30;99.90;;;;;;4995478;28;20127;-76
2023/06/25 02:04:50;;;;;;;0.00;0.00;;;17.20;99.90;;;;;;4989028;28;20046;-74
2023/06/25 02:07:16;;;;;;;0.00;0.00;;;17.20;99.90;;;;;;4993873;28;20042;-73
2023/06/25 02:09:41;;;;;;;0.10;0.10;;;17.20;99.90;;;;;;5004667;28;20038;-74
2023/06/25 02:12:08;;;;;;;1.23;0.68;;;17.20;99.90;;;;;;4999353;28;20051;-75
2023/06/25 02:14:34;;;;;;;0.20;0.17;;;17.20;99.90;;;;;;4984327;28;20103;-74
2023/06/25 02:17:00;;;;;;;1.67;0.65;;;17.20;99.90;;;;;;5000384;28;20057;-74
2023/06/25 02:19:25;;;;;;;0.73;0.32;;;17.20;99.90;;;;;;4978529;28;20035;-74
2023/06/25 02:21:51;;;;;;;0.00;0.00;;;17.20;99.90;;;;;;4997148;28;20039;-74
2023/06/25 02:24:17;;;;;;;0.43;0.32;;;17.10;99.90;;;;;;4999232;28;20078;-74
2023/06/25 02:26:43;;;;;;;0.08;0.08;;;17.10;99.90;;;;;;4979514;28;20049;-74
2023/06/25 02:29:08;;;;;;;0.00;0.00;;;17.10;99.90;;;;;;4997172;28;20169;-74
2023/06/25 02:31:34;;;;;;;0.00;0.00;;;17.10;99.90;;;;;;5003397;28;20053;-74
2023/06/25 02:34:00;;;;;;;0.75;0.20;;;17.00;99.90;;;;;;5005727;28;20038;-74
2023/06/25 02:36:25;;;;;;;0.00;0.00;;;17.00;99.90;;;;;;4985653;28;20037;-74
2023/06/25 02:38:51;;;;;;;0.00;0.00;;;17.00;99.90;;;;;;5000322;28;20076;-74
2023/06/25 02:41:17;;;;;;;0.10;0.10;;;16.90;99.90;;;;;;5003885;28;20041;-74
2023/06/25 02:43:43;;;;;;;0.00;0.00;;;16.90;99.90;;;;;;5000937;28;20073;-76
2023/06/25 02:46:08;;;;;;;0.10;0.00;;;16.90;99.90;;;;;;4996052;28;20132;-74
2023/06/25 02:48:36;;;;;;;0.00;0.00;;;16.80;99.90;;;;;;4995720;28;20022;-75
2023/06/25 02:51:02;;;;;;;0.10;0.10;;;16.80;99.90;;;;;;4981131;28;20053;-74
2023/06/25 02:53:28;;;;;;;0.15;0.00;;;16.80;99.90;;;;;;5000828;28;20038;-75
2023/06/25 02:55:53;;;;;;;0.30;0.10;;;16.80;99.90;;;;;;4993311;28;20053;-75
2023/06/25 02:58:19;;;;;;;0.22;0.10;;;16.70;99.90;;;;;;4978807;28;20044;-74
2023/06/25 03:00:45;;;;;;;0.08;0.08;;;16.70;99.90;;;;;;4998895;28;20054;-75
2023/06/25 03:03:10;;;;;;;0.00;0.00;;;16.70;99.90;;;;;;5003767;28;20049;-75
2023/06/25 03:05:36;;;;;;;0.10;0.10;;;16.70;99.90;;;;;;4991391;28;20514;-75
2023/06/25 03:08:02;;;;;;;0.10;0.00;;;16.70;99.90;;;;;;4995135;28;20043;-74
2023/06/25 03:10:30;;;;;;;0.00;0.00;;;16.70;99.90;;;;;;4997504;28;20040;-74
2023/06/25 03:12:56;;;;;;;0.00;0.00;;;16.70;99.90;;;;;;4999990;28;20493;-74
2023/06/25 03:15:22;;;;;;;0.30;0.25;;;16.70;99.90;;;;;;5002185;28;20049;-74
2023/06/25 03:17:49;;;;;;;0.20;0.20;;;16.60;99.90;;;;;;4996991;28;20081;-74
2023/06/25 03:20:15;;;;;;;0.40;0.40;;;16.70;99.90;;;;;;5002661;28;20430;-75
2023/06/25 03:22:40;;;;;;;0.00;0.00;;;16.60;99.90;;;;;;5002952;28;20038;-74
2023/06/25 03:25:06;;;;;;;0.10;0.10;;;16.60;99.90;;;;;;5002275;28;20072;-74
2023/06/25 03:27:34;;;;;;;0.55;0.13;;;16.60;99.90;;;;;;5001020;28;20038;-74
2023/06/25 03:29:59;;;;;;;0.10;0.10;;;16.60;99.90;;;;;;4999984;28;20187;-75
2023/06/25 03:32:25;;;;;;;0.05;0.05;;;16.60;99.90;;;;;;4992313;28;20668;-74
2023/06/25 03:34:51;;;;;;;0.43;0.20;;;16.60;99.90;;;;;;4990181;28;20122;-75
2023/06/25 03:37:17;;;;;;;0.05;0.03;;;16.60;99.90;;;;;;4994370;28;20517;-75
2023/06/25 03:39:43;;;;;;;0.38;0.30;;;16.50;99.90;;;;;;4996726;28;20046;-75
2023/06/25 03:42:09;;;;;;;0.10;0.10;;;16.50;99.90;;;;;;4978143;28;20465;-75
2023/06/25 03:44:35;;;;;;;0.40;0.20;;;16.40;99.90;;;;;;4974052;28;20074;-74
2023/06/25 03:47:00;;;;;;;0.08;0.00;;;16.50;99.90;;;;;;4996020;28;20042;-74
2023/06/25 03:49:26;;;;;;;0.20;0.00;;;16.40;99.90;;;;;;4997220;28;20439;-74
2023/06/25 03:51:52;;;;;;;0.65;0.28;;;16.50;99.90;;;;;;4990830;28;20042;-74
2023/06/25 03:54:18;;;;;;;0.68;0.20;;;16.50;99.90;;;;;;4988699;28;20042;-74
2023/06/25 03:56:43;;;;;;;0.10;0.10;;;16.50;99.90;;;;;;4974962;28;20060;-74
2023/06/25 03:59:09;;;;;;;0.00;0.00;;;16.50;99.90;;;;;;4993572;28;20046;-75
2023/06/25 04:01:35;;;;;;;0.00;0.00;;;16.60;99.90;;;;;;4972905;28;20053;-75
2023/06/25 04:04:01;;;;;;;1.98;0.10;;;16.60;99.90;;;;;;4975002;28;20042;-75
2023/06/25 04:06:26;;;;;;;0.10;0.10;;;16.70;99.90;;;;;;4997562;28;20034;-74
2023/06/25 04:08:52;;;;;;;0.35;0.32;;;16.70;99.90;;;;;;4997406;28;20038;-75
2023/06/25 04:11:18;;;;;;;1.95;0.35;;;16.70;99.90;;;;;;4989238;28;20375;-75
2023/06/25 04:13:44;;;;;;;0.15;0.10;;;16.80;99.90;;;;;;4990035;28;20041;-75
2023/06/25 04:16:10;;;;;;;0.20;0.20;;;16.80;99.90;;;;;;4993494;28;20046;-75
2023/06/25 04:18:38;;;;;;;0.10;0.00;;;16.80;99.90;;;;;;4998349;28;20053;-75
2023/06/25 04:21:04;;;;;;;0.00;0.00;;;16.90;99.90;;;;;;4978181;28;20041;-75
2023/06/25 04:23:30;;;;;;;0.10;0.10;;;17.00;99.90;;;;;;4978916;28;20046;-75
2023/06/25 04:25:56;;;;;;;0.85;0.20;;;17.10;99.90;;;;;;4994254;28;20070;-75
2023/06/25 04:28:22;;;;;;;0.35;0.20;;;17.20;99.90;;;;;;4994508;28;20084;-75
2023/06/25 04:30:48;;;;;;;1.45;0.80;;;17.30;99.90;;;;;;4989005;28;20082;-75
2023/06/25 04:33:13;;;;;;;0.63;0.55;;;17.30;99.90;;;;;;4992522;28;20093;-74
2023/06/25 04:35:39;;;;;;;0.80;0.40;;;17.40;99.90;;;;;;4994304;28;20044;-75
2023/06/25 04:38:05;;;;;;;0.15;0.15;;;17.50;99.90;;;;;;4996203;28;20038;-75
2023/06/25 04:40:31;;;;;;;0.28;0.20;;;17.50;99.90;;;;;;4988759;28;20409;-74
2023/06/25 04:42:56;;;;;;;0.77;0.63;;;17.60;99.90;;;;;;4976740;28;20161;-75
2023/06/25 04:45:22;;;;;;;1.48;1.10;;;17.60;99.90;;;;;;4978438;28;20069;-74
2023/06/25 04:47:48;;;;;;;0.22;0.13;;;17.60;99.90;;;;;;4983222;28;20128;-74
2023/06/25 04:50:14;;;;;;;0.77;0.55;;;17.70;99.90;;;;;;4993099;28;20038;-74
2023/06/25 04:52:39;;;;;;;0.20;0.20;;;17.80;99.90;;;;;;4992189;28;20046;-73
2023/06/25 04:55:06;;;;;;;0.50;0.22;;;17.90;99.90;;;;;;4982006;28;20038;-74
2023/06/25 04:57:31;;;;;;;0.50;0.40;;;18.00;99.90;;;;;;4979871;28;20107;-73
2023/06/25 04:59:57;;;;;;;0.35;0.35;;;18.10;99.90;;;;;;4990103;28;20125;-75
2023/06/25 05:02:23;;;;;;;0.68;0.43;;;18.40;99.90;;;;;;4993575;28;20489;-74
2023/06/25 05:04:49;;;;;;;0.57;0.43;;;18.70;99.90;;;;;;4996305;28;20601;-74
2023/06/25 05:07:14;;;;;;;0.50;0.50;;;19.20;99.90;;;;;;4997278;28;20038;-75
2023/06/25 05:09:40;;;;;;;1.10;0.65;;;19.70;99.90;;;;;;4987554;28;20042;-75
2023/06/25 05:12:06;;;;;;;1.38;0.63;;;20.00;99.90;;;;;;4982237;28;20050;-75
2023/06/25 05:14:32;;;;;;;0.77;0.65;;;20.00;99.90;;;;;;4996604;28;20079;-75
2023/06/25 05:16:57;;;;;;;0.50;0.50;;;19.80;99.90;;;;;;4977625;28;20038;-75
2023/06/25 05:19:23;;;;;;;0.45;0.20;;;19.70;99.90;;;;;;4974836;28;20049;-75
2023/06/25 05:21:49;;;;;;;0.45;0.28;;;19.60;99.90;;;;;;4991779;28;20045;-76
2023/06/25 05:24:15;;;;;;;0.65;0.30;;;19.50;99.90;;;;;;4999592;28;20073;-76
2023/06/25 05:26:40;;;;;;;1.67;0.85;;;19.50;99.90;;;;;;4993011;28;20045;-76
2023/06/25 05:29:06;;;;;;;0.25;0.20;;;19.50;99.90;;;;;;4993941;28;20099;-76
2023/06/25 05:31:32;;;;;;;0.60;0.60;;;19.50;99.90;;;;;;4998877;28;20041;-76
2023/06/25 05:33:58;;;;;;;0.30;0.20;;;19.50;99.90;;;;;;4999040;28;20037;-78
2023/06/25 05:36:24;;;;;;;0.32;0.20;;;19.50;99.90;;;;;;4993645;28;20493;-78
2023/06/25 05:38:49;;;;;;;0.15;0.00;;;19.60;99.90;;;;;;4999648;28;20049;-77
2023/06/25 05:41:15;;;;;;;0.60;0.30;;;19.70;99.90;;;;;;4982397;28;20033;-77
2023/06/25 05:43:41;;;;;;;0.60;0.47;;;19.80;99.90;;;;;;4981252;28;20070;-77
2023/06/25 05:46:11;;;;;;;0.82;0.57;;;19.90;99.90;;;;;;4979139;28;20230;-76
2023/06/25 05:48:38;;;;;;;0.68;0.40;;;19.90;99.90;;;;;;4990791;28;20037;-76
2023/06/25 05:51:04;;;;;;;0.25;0.20;;;20.00;99.90;;;;;;5003437;28;20030;-77
2023/06/25 05:53:42;;;;;;;0.10;0.10;;;20.10;99.90;;;;;;4993676;28;20409;-78
2023/06/25 05:56:08;;;;;;;0.00;0.00;;;20.20;99.90;;;;;;4980837;28;20077;-77
2023/06/25 05:58:35;;;;;;;0.10;0.10;;;20.30;99.90;;;;;;4998319;28;20080;-78
2023/06/25 06:01:01;;;;;;;0.30;0.20;;;20.50;99.90;;;;;;5001149;28;20081;-78
2023/06/25 06:03:26;;;;;;;0.20;0.20;;;20.50;99.90;;;;;;4982142;28;20077;-77
2023/06/25 06:05:54;;;;;;;1.35;0.57;;;20.60;99.90;;;;;;4978371;28;20090;-77
2023/06/25 06:08:20;;;;;;;0.20;0.17;;;20.70;99.90;;;;;;4992672;28;20033;-77
2023/06/25 06:10:46;;;;;;;1.67;0.52;;;20.80;99.90;;;;;;4980524;28;20112;-77
2023/06/25 06:13:12;;;;;;;0.20;0.20;;;20.90;99.90;;;;;;4993613;28;20038;-77
2023/06/25 06:15:38;;;;;;;1.75;0.47;;;20.90;99.90;;;;;;4995081;28;20077;-78
2023/06/25 06:18:03;;;;;;;0.57;0.50;;;21.00;99.90;;;;;;4981586;28;20070;-79
2023/06/25 06:20:29;;;;;;;0.22;0.15;;;21.10;99.90;;;;;;4990238;28;20381;-79
2023/06/25 06:22:57;;;;;;;0.40;0.15;;;21.20;99.90;;;;;;4989761;28;20044;-79
2023/06/25 06:25:23;;;;;;;1.65;0.82;;;21.30;99.90;;;;;;4975078;28;20383;-78
2023/06/25 06:27:49;;;;;;;0.15;0.15;;;21.40;99.90;;;;;;5001763;28;20091;-77
2023/06/25 06:30:15;;;;;;;0.10;0.10;;;21.60;99.90;;;;;;4997850;28;20080;-78
2023/06/25 06:32:40;;;;;;;0.25;0.25;;;21.60;99.90;;;;;;4986541;28;20116;-78
2023/06/25 06:35:06;;;;;;;0.30;0.20;;;21.70;99.90;;;;;;4980876;28;20050;-78
2023/06/25 06:37:32;;;;;;;0.35;0.20;;;21.80;99.90;;;;;;4980429;28;20076;-78
2023/06/25 06:39:58;;;;;;;1.25;0.55;;;21.80;99.90;;;;;;4999463;28;20094;-79
2023/06/25 06:42:24;;;;;;;0.40;0.40;;;22.00;99.90;;;;;;4988949;28;20037;-79
2023/06/25 06:44:50;;;;;;;1.33;0.32;;;22.00;99.90;;;;;;4990860;28;20092;-79
2023/06/25 06:47:15;;;;;;;0.22;0.20;;;22.00;99.90;;;;;;4980942;28;20041;-78
2023/06/25 06:49:41;;;;;;;0.30;0.28;;;22.10;99.90;;;;;;4991774;28;20485;-79
2023/06/25 06:52:07;;;;;;;0.50;0.40;;;22.30;99.90;;;;;;4992573;28;20049;-78
2023/06/25 06:54:33;;;;;;;0.55;0.55;;;22.40;99.90;;;;;;4996753;28;20069;-79
2023/06/25 06:56:59;;;;;;;0.45;0.38;;;22.50;99.90;;;;;;4979921;28;20136;-78
2023/06/25 06:59:24;;;;;;;1.13;0.47;;;22.60;99.90;;;;;;5006484;28;20041;-78
2023/06/25 07:01:50;;;;;;;0.70;0.40;;;22.70;99.90;;;;;;5002620;28;20107;-78
2023/06/25 07:04:16;;;;;;;0.10;0.10;;;22.90;99.90;;;;;;4999628;28;20085;-78
2023/06/25 07:06:41;;;;;;;0.60;0.40;;;23.00;99.90;;;;;;4999584;28;20525;-77
2023/06/25 07:09:07;;;;;;;0.55;0.32;;;23.10;99.90;;;;;;4999948;28;20038;-78
2023/06/25 07:11:35;;;;;;;0.63;0.10;;;23.20;99.90;;;;;;5000602;28;20062;-79
2023/06/25 07:14:01;;;;;;;0.15;0.08;;;23.40;99.90;;;;;;5003733;28;20042;-78
2023/06/25 07:16:27;;;;;;;0.22;0.20;;;23.50;99.90;;;;;;4978843;28;20465;-79
2023/06/25 07:18:53;;;;;;;0.25;0.20;;;23.70;99.90;;;;;;5002870;28;20160;-79
2023/06/25 07:21:19;;;;;;;0.43;0.30;;;23.70;99.90;;;;;;4999854;28;20071;-78
2023/06/25 07:23:44;;;;;;;0.10;0.10;;;23.90;99.90;;;;;;4987998;28;20132;-79
2023/06/25 07:26:10;;;;;;;0.25;0.17;;;24.00;99.90;;;;;;4992863;28;20163;-79
2023/06/25 07:28:36;;;;;;;1.40;0.50;;;24.10;99.90;;;;;;4996794;28;20083;-79
2023/06/25 07:31:02;;;;;;;0.10;0.10;;;24.30;99.90;;;;;;4990596;28;20045;-79
2023/06/25 07:33:28;;;;;;;0.20;0.20;;;24.40;99.90;;;;;;4995776;28;20042;-78
2023/06/25 07:35:54;;;;;;;0.43;0.20;;;24.50;99.90;;;;;;4991907;28;20116;-78
2023/06/25 07:38:20;;;;;;;0.30;0.20;;;24.60;99.90;;;;;;5000501;28;20137;-77
2023/06/25 07:40:45;;;;;;;0.47;0.35;;;24.80;99.90;;;;;;4992428;28;20034;-78
2023/06/25 07:43:11;;;;;;;0.32;0.30;;;24.90;99.90;;;;;;4993300;28;20500;-78
2023/06/25 07:45:38;;;;;;;0.52;0.22;;;25.00;99.90;;;;;;4996986;28;20110;-78
2023/06/25 07:48:04;;;;;;;0.88;0.32;;;25.10;99.90;;;;;;4991038;28;20034;-76
2023/06/25 07:50:30;;;;;;;0.60;0.43;;;25.20;99.90;;;;;;4985818;28;20042;-78
2023/06/25 07:52:55;;;;;;;0.35;0.30;;;25.20;99.90;;;;;;4984269;28;20254;-77
2023/06/25 07:55:22;;;;;;;0.63;0.40;;;25.20;99.90;;;;;;4993671;28;20569;-77
2023/06/25 07:57:48;;;;;;;0.35;0.25;;;25.30;99.90;;;;;;4977733;28;20042;-78
2023/06/25 08:00:14;;;;;;;0.38;0.20;;;25.40;99.90;;;;;;4996690;28;20041;-77
2023/06/25 08:02:40;;;;;;;0.95;0.77;;;25.50;99.90;;;;;;4973021;28;20042;-78
2023/06/25 08:05:06;;;;;;;0.93;0.40;;;25.50;99.90;;;;;;4976701;28;20105;-77
2023/06/25 08:07:31;;;;;;;0.57;0.32;;;25.60;99.90;;;;;;4999780;28;20038;-77
2023/06/25 08:09:57;;;;;;;0.20;0.20;;;25.70;99.90;;;;;;4989266;28;20053;-77
2023/06/25 08:12:23;;;;;;;0.17;0.10;;;25.90;99.90;;;;;;4992490;28;20100;-76
2023/06/25 08:14:49;;;;;;;0.45;0.45;;;26.10;99.90;;;;;;5000406;28;20046;-77
2023/06/25 08:17:15;;;;;;;1.38;0.20;;;26.20;99.90;;;;;;4982727;28;20042;-77
2023/06/25 08:19:41;;;;;;;0.10;0.10;;;26.30;99.90;;;;;;4976827;28;20592;-78
2023/06/25 08:22:06;;;;;;;0.10;0.08;;;26.40;99.90;;;;;;4988995;28;20081;-76
2023/06/25 08:24:32;;;;;;;0.40;0.30;;;26.60;99.90;;;;;;4998241;28;20058;-76
2023/06/25 08:26:58;;;;;;;0.30;0.25;;;26.70;99.90;;;;;;4995714;28;20038;-77
2023/06/25 08:29:26;;;;;;;0.40;0.30;;;26.80;99.90;;;;;;4994751;28;20042;-77
2023/06/25 08:31:53;;;;;;;0.30;0.10;;;26.90;99.90;;;;;;4993054;28;20137;-78
2023/06/25 08:34:18;;;;;;;0.10;0.10;;;27.00;99.90;;;;;;4982930;28;20050;-77
2023/06/25 08:36:44;;;;;;;0.43;0.22;;;27.20;99.90;;;;;;4993674;28;20046;-78
2023/06/25 08:39:10;;;;;;;0.10;0.10;;;27.20;99.90;;;;;;4996332;28;20093;-77
2023/06/25 08:41:35;;;;;;;0.93;0.10;;;27.40;99.90;;;;;;4984677;28;20034;-77
2023/06/25 08:44:02;;;;;;;0.15;0.10;;;27.50;99.90;;;;;;4994435;28;20069;-78
2023/06/25 08:46:29;;;;;;;0.32;0.20;;;27.70;99.90;;;;;;4981556;28;20041;-77
2023/06/25 08:48:55;;;;;;;0.40;0.20;;;27.80;99.90;;;;;;4980133;28;20041;-78
2023/06/25 08:51:24;;;;;;;0.38;0.25;;;27.90;99.00;;;;;;4987848;28;20051;-77
2023/06/25 08:53:55;;;;;;;0.10;0.10;;;28.10;99.90;;;;;;4990468;28;20432;-78
2023/06/25 08:56:21;;;;;;;0.10;0.00;;;28.20;97.40;;;;;;4997677;28;20419;-75
2023/06/25 08:58:47;;;;;;;0.15;0.10;;;28.40;99.50;;;;;;4999488;28;20048;-77
2023/06/25 09:01:13;;;;;;;0.20;0.10;;;28.60;92.00;;;;;;5002807;28;20490;-77
2023/06/25 09:03:42;;;;;;;0.20;0.20;;;28.80;88.40;;;;;;4995381;28;20458;-75
2023/06/25 09:06:15;;;;;;;0.15;0.10;;;29.20;92.20;;;;;;4999372;28;20038;-76
2023/06/25 09:08:42;;;;;;;;;;;29.20;90.30;;;;;;4981943;28;20039;-77
2023/06/25 09:11:08;;;;;;;0.63;0.30;;;29.20;78.90;;;;;;4996881;28;20031;-76
2023/06/25 09:13:35;;;;;;;0.20;0.20;;;29.30;81.80;;;;;;4994509;28;20046;-75
2023/06/25 09:16:02;;;;;;;0.28;0.25;;;29.40;80.20;;;;;;4997828;28;20046;-76
2023/06/25 09:18:31;;;;;;;0.32;0.22;;;29.50;78.00;;;;;;4989172;28;20072;-75
2023/06/25 09:21:05;;;;;;;0.43;0.20;;;29.60;80.30;;;;;;5000752;28;20050;-76
2023/06/25 09:23:31;;;;;;;0.00;0.00;;;29.60;78.80;;;;;;4989495;28;20049;-76
2023/06/25 09:25:57;;;;;;;0.30;0.00;;;29.80;78.90;;;;;;5003794;28;20089;-76
2023/06/25 09:28:24;;;;;;;0.00;0.00;;;29.70;72.50;;;;;;4981530;28;20041;-75
2023/06/25 09:30:55;;;;;;;0.10;0.08;;;29.70;70.70;;;;;;4977634;28;20042;-76
2023/06/25 09:33:21;;;;;;;0.00;0.00;;;29.70;69.00;;;;;;5002536;28;20506;-76
2023/06/25 09:35:46;;;;;;;0.20;0.10;;;29.80;66.60;;;;;;4997236;28;20107;-76
2023/06/25 09:38:12;;;;;;;0.10;0.05;;;30.00;70.60;;;;;;4981799;28;20042;-76
2023/06/25 09:40:38;;;;;;;0.00;0.00;;;30.20;71.60;;;;;;4998320;28;20046;-76
2023/06/25 09:43:06;;;;;;;0.25;0.10;;;30.40;70.50;;;;;;5004085;28;20474;-75
2023/06/25 09:45:33;;;;;;;0.10;0.03;;;30.60;63.90;;;;;;4999472;28;20038;-76
2023/06/25 09:48:01;;;;;;;0.13;0.10;;;30.60;68.10;;;;;;4996648;28;20038;-76
2023/06/25 09:50:32;;;;;;;0.20;0.10;;;30.50;66.70;;;;;;4999156;28;20113;-76
2023/06/25 09:53:01;;;;;;;1.10;0.08;;;30.40;61.80;;;;;;4989144;28;20129;-77
2023/06/25 09:55:28;;;;;;;0.30;0.10;;;30.50;63.50;;;;;;4993739;28;20490;-75
2023/06/25 09:57:54;;;;;;;0.20;0.20;;;30.60;63.90;;;;;;4996348;28;20043;-77
2023/06/25 10:00:22;;;;;;;0.20;0.15;;;30.70;66.10;;;;;;4999975;28;20043;-76
2023/06/25 10:02:49;;;;;;;0.00;0.00;;;30.70;57.20;;;;;;4991062;28;20085;-76
2023/06/25 10:05:15;;;;;;;0.30;0.15;;;30.80;63.70;;;;;;4990736;28;20051;-76
2023/06/25 10:07:43;;;;;;;0.30;0.20;;;30.90;63.50;;;;;;4977486;28;20045;-77
2023/06/25 10:10:29;;;;;;;0.10;0.08;;;31.00;63.10;;;;;;4989884;28;20042;-78
2023/06/25 10:12:55;;;;;;;0.10;0.10;;;31.20;60.00;;;;;;4985147;28;20054;-78
2023/06/25 10:15:31;;;;;;;0.20;0.10;;;31.30;60.30;;;;;;4974078;28;20108;-77
2023/06/25 10:18:03;;;;;;;0.00;0.00;;;31.50;59.40;;;;;;4976952;28;20049;-78
2023/06/25 10:20:31;;;;;;;0.38;0.08;;;31.70;58.10;;;;;;4994830;28;20463;-65
2023/06/25 10:23:08;;;;;;;0.00;0.00;;;31.90;56.60;;;;;;4989796;28;20038;-66
2023/06/25 10:25:36;;;;;;;0.25;0.10;;;32.00;59.50;;;;;;5004742;28;20124;-66
2023/06/25 10:28:13;;;;;;;0.30;0.20;;;32.10;58.60;;;;;;5014564;28;20041;-66
2023/06/25 10:30:46;;;;;;;0.30;0.15;;;32.20;56.00;;;;;;5010650;28;20116;-64
2023/06/25 10:33:17;;;;;;;0.30;0.20;;;32.20;54.90;;;;;;5007246;28;20042;-64
2023/06/25 10:35:55;;;;;;;0.10;0.05;;;32.20;58.90;;;;;;5014594;28;20544;-65
2023/06/25 10:38:22;;;;;;;0.52;0.20;;;32.20;52.70;;;;;;5016870;28;20094;-65
2023/06/25 10:40:48;;;;;;;0.60;0.20;;;32.30;53.80;;;;;;5012319;28;20041;-65
2023/06/25 10:43:19;;;;;;;0.63;0.20;;;32.30;55.70;;;;;;5022545;28;20038;-65
2023/06/25 10:45:56;;;;;;;0.22;0.08;;;32.40;56.30;;;;;;5001376;28;20140;-66
2023/06/25 10:48:22;;;;;;;0.00;0.00;;;32.50;54.30;;;;;;5014373;28;20049;-65
2023/06/25 10:50:49;;;;;;;0.00;0.00;;;32.70;51.70;;;;;;5025399;28;20037;-65
2023/06/25 10:53:16;;;;;;;0.50;0.28;;;32.90;53.70;;;;;;5017177;28;20034;-65
2023/06/25 10:55:47;;;;;;;0.32;0.13;;;33.10;54.90;;;;;;5018712;28;20073;-66
2023/06/25 10:58:20;;;;;;;0.40;0.20;;;33.20;51.70;;;;;;5009435;28;20430;-66
2023/06/25 11:00:55;;;;;;;0.05;0.03;;;33.20;51.30;;;;;;5024480;28;20119;-65
2023/06/25 11:03:22;;;;;;;0.10;0.00;;;33.30;52.00;;;;;;5015040;28;20521;-65
2023/06/25 11:05:47;;;;;;;0.20;0.10;;;33.30;53.00;;;;;;5018997;28;20072;-66
2023/06/25 11:08:14;;;;;;;0.22;0.00;;;33.30;51.10;;;;;;5016222;28;20092;-65
2023/06/25 11:10:41;;;;;;;0.15;0.00;;;33.20;48.60;;;;;;5017098;28;20034;-67
2023/06/25 11:13:11;;;;;;;0.10;0.00;;;33.20;51.00;;;;;;5016244;28;20536;-65
2023/06/25 11:15:37;;;;;;;0.05;0.05;;;33.30;51.70;;;;;;5018206;28;20041;-66
2023/06/25 11:18:03;;;;;;;0.22;0.10;;;33.40;50.10;;;;;;5017039;28;20034;-66
2023/06/25 11:20:29;;;;;;;0.10;0.10;;;33.30;49.90;;;;;;5011600;28;20099;-65
2023/06/25 11:22:56;;;;;;;0.28;0.20;;;33.20;50.70;;;;;;5013763;28;20085;-66
2023/06/25 11:25:21;;;;;;;0.38;0.28;;;33.20;50.80;;;;;;4983523;28;1106725;-65
2023/06/25 11:27:48;;;;;;;0.00;0.00;;;33.20;51.50;;;;;;5024817;28;20053;-66
2023/06/25 11:30:14;;;;;;;0.15;0.10;;;33.30;51.30;;;;;;5015354;28;20046;-66
2023/06/25 11:32:40;;;;;;;0.10;0.10;;;33.30;46.80;;;;;;5022805;28;20193;-65
2023/06/25 11:35:13;;;;;;;0.40;0.20;;;33.40;50.50;;;;;;5018429;28;20124;-65
2023/06/25 11:37:47;;;;;;;0.30;0.10;;;33.60;51.20;;;;;;5011678;28;20038;-65
2023/06/25 11:40:26;;;;;;;0.25;0.13;;;33.80;50.00;;;;;;5019950;28;21047;-66
2023/06/25 11:42:52;;;;;;;0.30;0.10;;;34.00;49.60;;;;;;5025084;28;20041;-65
2023/06/25 11:45:19;;;;;;;0.03;0.03;;;33.90;49.30;;;;;;5016176;28;20060;-66
2023/06/25 11:47:56;;;;;;;0.10;0.10;;;33.90;49.00;;;;;;5016361;28;20447;-66
2023/06/25 11:50:23;;;;;;;0.40;0.10;;;33.80;48.80;;;;;;5016594;28;20077;-66
2023/06/25 11:52:51;;;;;;;0.00;0.00;;;33.90;50.90;;;;;;5013685;28;20041;-63
2023/06/25 11:55:18;;;;;;;0.43;0.17;;;34.00;50.50;;;;;;5020991;28;20489;-65
2023/06/25 11:57:45;;;;;;;0.40;0.13;;;34.30;51.30;;;;;;5019801;28;20081;-66
2023/06/25 12:00:12;;;;;;;0.10;0.10;;;34.50;49.90;;;;;;5011160;28;20041;-66
2023/06/25 12:02:37;;;;;;;0.10;0.03;;;34.70;50.30;;;;;;5017480;28;20129;-65
2023/06/25 12:05:03;;;;;;;0.00;0.00;;;34.80;50.20;;;;;;5017506;28;20505;-65
2023/06/25 12:07:29;;;;;;;0.10;0.10;;;34.70;49.60;;;;;;5012513;28;20117;-66
2023/06/25 12:09:55;;;;;;;0.10;0.00;;;34.50;48.80;;;;;;5010531;28;20105;-65
2023/06/25 12:12:21;;;;;;;0.10;0.00;;;34.40;48.60;;;;;;5019578;28;20048;-65
2023/06/25 12:14:47;;;;;;;0.10;0.08;;;34.40;49.60;;;;;;5013970;28;20148;-65
2023/06/25 12:17:14;;;;;;;0.10;0.00;;;34.40;48.00;;;;;;5010239;28;20041;-64
2023/06/25 12:19:41;;;;;;;0.20;0.10;;;34.50;48.00;;;;;;5014046;28;20041;-64
2023/06/25 12:22:06;;;;;;;0.28;0.10;;;34.70;49.00;;;;;;5017252;28;20429;-65
2023/06/25 12:24:32;;;;;;;0.00;0.00;;;34.90;49.70;;;;;;5014849;28;20046;-65
2023/06/25 12:26:58;;;;;;;0.10;0.05;;;35.10;50.40;;;;;;5005752;28;20038;-65
2023/06/25 12:29:24;;;;;;;0.00;0.00;;;35.20;49.90;;;;;;5018360;28;20038;-65
2023/06/25 12:31:49;;;;;;;0.50;0.20;;;35.20;48.60;;;;;;5019569;28;20386;-65
2023/06/25 12:34:15;;;;;;;0.08;0.08;;;35.20;48.70;;;;;;5023192;28;20039;-64
2023/06/25 12:36:41;;;;;;;0.57;0.20;;;35.20;50.40;;;;;;5007075;28;20046;-65
2023/06/25 12:39:07;;;;;;;0.25;0.10;;;35.30;50.70;;;;;;5013791;28;20034;-65
2023/06/25 12:41:32;;;;;;;0.15;0.10;;;35.40;49.30;;;;;;5001175;28;20045;-65
2023/06/25 12:43:58;;;;;;;0.00;0.00;;;35.40;49.30;;;;;;5014173;28;20062;-64
2023/06/25 12:46:24;;;;;;;0.30;0.10;;;35.50;50.60;;;;;;5009513;28;20033;-65